createdAt,value
2022-08-25T00:01:58.425Z,21.69
2022-08-25T00:06:00.567Z,21.75
2022-08-25T00:10:03.187Z,21.83
2022-08-25T00:14:09.774Z,21.73
2022-08-25T00:18:19.809Z,21.75
2022-08-25T00:22:22.667Z,21.80
2022-08-25T00:26:26.486Z,21.78
2022-08-25T00:30:28.557Z,21.70
2022-08-25T00:34:37.579Z,21.61
2022-08-25T00:38:42.276Z,21.46
2022-08-25T00:42:44.685Z,21.57
2022-08-25T00:46:50.643Z,21.52
2022-08-25T00:50:52.830Z,21.61
2022-08-25T00:55:10.122Z,21.59
2022-08-25T00:59:13.633Z,21.51
2022-08-25T01:03:20.312Z,21.50
2022-08-25T01:07:24.328Z,21.59
2022-08-25T01:11:28.227Z,21.60
2022-08-25T01:15:31.069Z,21.58
2022-08-25T01:19:33.682Z,21.56
2022-08-25T01:23:35.835Z,21.66
2022-08-25T01:27:37.865Z,21.64
2022-08-25T01:31:42.281Z,21.65
2022-08-25T01:35:45.445Z,21.67
2022-08-25T01:39:48.295Z,21.72
2022-08-25T01:43:50.398Z,21.80
2022-08-25T01:47:52.825Z,21.79
2022-08-25T01:52:22.598Z,21.83
2022-08-25T01:56:25.084Z,21.78
2022-08-25T02:00:27.204Z,21.85
2022-08-25T02:04:33.141Z,21.88
2022-08-25T02:08:36.695Z,21.88
2022-08-25T02:12:39.643Z,21.79
2022-08-25T02:16:45.713Z,21.81
2022-08-25T02:20:48.967Z,21.72
2022-08-25T02:24:51.322Z,21.72
2022-08-25T02:28:54.450Z,21.68
2022-08-25T02:32:56.574Z,21.63
2022-08-25T02:36:58.803Z,21.56
2022-08-25T02:41:09.376Z,21.56
2022-08-25T02:45:11.739Z,21.53
2022-08-25T02:49:13.937Z,21.61
2022-08-25T02:53:16.262Z,21.73
2022-08-25T02:57:18.436Z,21.56
2022-08-25T03:01:22.062Z,21.45
2022-08-25T03:05:31.998Z,21.36
2022-08-25T03:09:34.487Z,21.34
2022-08-25T03:13:41.118Z,21.32
2022-08-25T03:17:47.674Z,21.32
2022-08-25T03:21:56.098Z,21.32
2022-08-25T03:26:36.949Z,21.32
2022-08-25T03:30:39.211Z,21.29
2022-08-25T03:34:41.724Z,21.25
2022-08-25T03:38:43.787Z,21.25
2022-08-25T03:42:46.763Z,21.37
2022-08-25T03:46:51.757Z,21.39
2022-08-25T03:50:54.901Z,21.32
2022-08-25T03:54:56.977Z,21.32
2022-08-25T03:59:00.690Z,21.42
2022-08-25T04:03:02.759Z,21.40
2022-08-25T04:07:05.511Z,21.40
2022-08-25T04:11:15.590Z,21.48
2022-08-25T04:15:18.902Z,21.51
2022-08-25T04:19:21.636Z,21.51
2022-08-25T04:23:24.108Z,21.53
2022-08-25T04:27:26.375Z,21.63
2022-08-25T04:31:30.053Z,21.69
2022-08-25T04:35:32.438Z,21.73
2022-08-25T04:39:34.869Z,21.81
2022-08-25T04:43:38.585Z,21.77
2022-08-25T04:47:41.365Z,21.87
2022-08-25T04:51:43.575Z,21.91
2022-08-25T04:55:48.525Z,21.98
2022-08-25T04:59:51.047Z,22.04
2022-08-25T05:03:56.645Z,22.16
2022-08-25T05:07:58.741Z,22.18
2022-08-25T05:12:02.271Z,22.27
2022-08-25T05:16:05.903Z,22.56
2022-08-25T05:20:12.235Z,22.63
2022-08-25T05:24:14.230Z,22.74
2022-08-25T05:28:17.312Z,22.80
2022-08-25T05:32:19.326Z,22.79
2022-08-25T05:36:22.858Z,22.93
2022-08-25T05:40:25.648Z,22.91
2022-08-25T05:44:28.075Z,22.82
2022-08-25T05:48:30.179Z,22.93
2022-08-25T05:52:33.056Z,22.91
2022-08-25T05:56:35.413Z,23.15
2022-08-25T06:00:39.485Z,23.19
2022-08-25T06:04:41.720Z,23.47
2022-08-25T06:08:45.201Z,23.45
2022-08-25T06:12:47.702Z,23.74
2022-08-25T06:16:52.147Z,24.12
2022-08-25T06:20:54.197Z,24.47
2022-08-25T06:24:56.516Z,24.63
2022-08-25T06:28:58.675Z,24.77
2022-08-25T06:33:01.118Z,25.06
2022-08-25T06:37:06.358Z,24.93
2022-08-25T06:41:10.983Z,25.19
2022-08-25T06:45:13.238Z,25.34
2022-08-25T06:49:17.573Z,25.58
2022-08-25T06:53:19.618Z,25.83
2022-08-25T06:57:22.280Z,25.78
2022-08-25T07:01:27.378Z,25.98
2022-08-25T07:05:45.195Z,26.28
2022-08-25T07:09:47.586Z,26.27
2022-08-25T07:13:50.771Z,26.24
2022-08-25T07:17:52.799Z,26.25
2022-08-25T07:21:55.085Z,26.45
2022-08-25T07:25:57.690Z,26.52
2022-08-25T07:30:00.093Z,26.58
2022-08-25T07:34:22.084Z,26.62
2022-08-25T07:38:24.458Z,27.12
2022-08-25T07:42:27.880Z,27.25
2022-08-25T07:46:30.446Z,27.32
2022-08-25T07:50:34.051Z,27.36
2022-08-25T07:54:38.081Z,27.28
2022-08-25T07:58:41.780Z,27.40
2022-08-25T08:02:44.350Z,27.36
2022-08-25T08:06:46.744Z,27.48
2022-08-25T08:11:05.553Z,27.52
2022-08-25T08:15:10.573Z,27.36
2022-08-25T08:19:13.558Z,27.42
2022-08-25T08:23:17.403Z,27.18
2022-08-25T08:27:19.746Z,27.27
2022-08-25T08:31:27.672Z,27.39
2022-08-25T08:35:30.030Z,27.62
2022-08-25T08:39:32.263Z,27.94
2022-08-25T08:43:37.189Z,28.35
2022-08-25T08:48:03.445Z,28.40
2022-08-25T08:52:11.784Z,27.98
2022-08-25T08:56:19.762Z,28.37
2022-08-25T09:00:22.131Z,28.60
2022-08-25T09:04:34.499Z,28.84
2022-08-25T09:08:44.654Z,29.09
2022-08-25T09:13:12.006Z,29.14
2022-08-25T09:17:24.452Z,29.75
2022-08-25T09:21:40.286Z,29.72
2022-08-25T09:25:56.999Z,29.81
2022-08-25T09:30:32.788Z,29.51
2022-08-25T09:34:36.121Z,29.80
2022-08-25T09:38:38.965Z,29.88
2022-08-25T09:42:58.098Z,29.66
2022-08-25T09:47:02.097Z,30.04
2022-08-25T09:51:42.471Z,30.78
2022-08-25T09:55:59.943Z,31.12
2022-08-25T10:00:10.105Z,31.41
2022-08-25T10:04:18.955Z,31.30
2022-08-25T10:08:35.938Z,31.11
2022-08-25T10:12:42.341Z,31.33
2022-08-25T10:16:47.309Z,31.64
2022-08-25T10:21:08.901Z,31.56
2022-08-25T10:25:16.909Z,31.41
2022-08-25T10:29:46.491Z,31.79
2022-08-25T10:34:06.388Z,31.66
2022-08-25T10:38:23.890Z,31.52
2022-08-25T10:43:00.688Z,31.82
2022-08-25T10:47:34.843Z,31.96
2022-08-25T10:51:46.840Z,31.77
2022-08-25T10:56:21.365Z,31.84
2022-08-25T11:00:47.703Z,31.72
2022-08-25T11:04:55.999Z,32.16
2022-08-25T11:09:04.412Z,32.01
2022-08-25T11:13:46.650Z,31.98
2022-08-25T11:17:56.050Z,31.89
2022-08-25T11:22:36.229Z,32.17
2022-08-25T11:26:59.805Z,32.17
2022-08-25T11:31:03.453Z,32.15
2022-08-25T11:35:14.953Z,32.50
2022-08-25T11:39:24.584Z,32.47
2022-08-25T11:44:03.986Z,32.59
2022-08-25T11:48:51.635Z,32.59
2022-08-25T11:53:03.119Z,32.57
2022-08-25T11:57:18.519Z,32.35
2022-08-25T12:01:39.258Z,32.28
2022-08-25T12:05:42.499Z,31.92
2022-08-25T12:09:50.586Z,32.14
2022-08-25T12:13:52.692Z,31.99
2022-08-25T12:18:09.754Z,32.11
2022-08-25T12:22:13.659Z,32.17
2022-08-25T12:26:15.893Z,32.12
2022-08-25T12:30:46.437Z,32.05
2022-08-25T12:35:02.907Z,32.57
2022-08-25T12:39:24.611Z,32.86
2022-08-25T12:43:37.804Z,32.92
2022-08-25T12:47:44.756Z,33.19
2022-08-25T12:51:59.251Z,32.73
2022-08-25T12:56:28.602Z,32.40
2022-08-25T13:01:32.871Z,32.18
2022-08-25T13:06:08.926Z,32.68
2022-08-25T13:10:13.846Z,32.68
2022-08-25T13:14:26.769Z,32.14
2022-08-25T13:18:32.718Z,32.31
2022-08-25T13:22:36.019Z,32.13
2022-08-25T13:26:48.418Z,32.15
2022-08-25T13:31:28.371Z,32.11
2022-08-25T13:35:33.129Z,32.23
2022-08-25T13:39:55.388Z,32.23
2022-08-25T13:43:59.786Z,32.31
2022-08-25T13:48:03.782Z,32.53
2022-08-25T13:52:19.252Z,32.35
2022-08-25T13:56:40.685Z,32.32
2022-08-25T14:01:23.469Z,32.33
2022-08-25T14:05:36.116Z,32.45
2022-08-25T14:09:52.145Z,32.52
2022-08-25T14:14:14.582Z,32.48
2022-08-25T14:18:26.759Z,32.76
2022-08-25T14:22:29.607Z,32.53
2022-08-25T14:26:31.848Z,32.28
2022-08-25T14:30:43.448Z,32.44
2022-08-25T14:34:48.327Z,32.55
2022-08-25T14:38:54.538Z,32.46
2022-08-25T14:42:56.867Z,32.47
2022-08-25T14:47:02.055Z,32.39
2022-08-25T14:51:07.094Z,32.41
2022-08-25T14:55:10.707Z,31.96
2022-08-25T14:59:12.951Z,32.03
2022-08-25T15:03:19.292Z,31.97
2022-08-25T15:07:41.311Z,31.91
2022-08-25T15:11:50.556Z,31.41
2022-08-25T15:15:53.537Z,31.67
2022-08-25T15:19:55.962Z,31.70
2022-08-25T15:24:00.486Z,32.41
2022-08-25T15:28:07.466Z,33.03
2022-08-25T15:32:12.687Z,34.61
2022-08-25T15:36:30.665Z,36.59
2022-08-25T15:40:34.545Z,37.35
2022-08-25T15:44:37.137Z,37.23
2022-08-25T15:48:41.515Z,36.86
2022-08-25T15:52:48.618Z,37.08
2022-08-25T15:56:51.775Z,36.52
2022-08-25T16:00:56.244Z,36.36
2022-08-25T16:04:58.834Z,36.37
2022-08-25T16:09:01.640Z,35.35
2022-08-25T16:13:04.965Z,33.69
2022-08-25T16:17:07.951Z,32.11
2022-08-25T16:21:16.847Z,30.91
2022-08-25T16:25:19.365Z,30.20
2022-08-25T16:29:21.987Z,29.74
2022-08-25T16:33:24.666Z,29.30
2022-08-25T16:37:28.083Z,29.00
2022-08-25T16:41:34.641Z,28.72
2022-08-25T16:45:38.622Z,28.48
2022-08-25T16:49:42.425Z,28.19
2022-08-25T16:54:05.816Z,27.91
2022-08-25T16:58:13.631Z,27.64
2022-08-25T17:02:16.102Z,27.39
2022-08-25T17:06:21.492Z,27.11
2022-08-25T17:10:23.541Z,26.81
2022-08-25T17:14:29.016Z,26.50
2022-08-25T17:18:31.495Z,26.20
2022-08-25T17:22:33.756Z,25.95
2022-08-25T17:26:39.724Z,25.64
2022-08-25T17:30:43.727Z,25.40
2022-08-25T17:34:46.327Z,25.16
2022-08-25T17:38:48.698Z,24.92
2022-08-25T17:42:51.421Z,24.71
2022-08-25T17:46:54.566Z,24.46
2022-08-25T17:51:00.415Z,24.28
2022-08-25T17:55:02.846Z,24.05
2022-08-25T17:59:05.606Z,23.88
2022-08-25T18:03:08.866Z,23.73
2022-08-25T18:07:12.996Z,23.54
2022-08-25T18:11:15.405Z,23.35
2022-08-25T18:15:20.948Z,23.17
2022-08-25T18:19:23.157Z,23.05
2022-08-25T18:23:25.322Z,22.91
2022-08-25T18:27:28.817Z,22.76
2022-08-25T18:31:31.889Z,22.61
2022-08-25T18:35:34.711Z,22.36
2022-08-25T18:39:55.594Z,22.13
2022-08-25T18:43:57.828Z,22.05
2022-08-25T18:48:00.516Z,22.03
2022-08-25T18:52:04.876Z,22.04
2022-08-25T18:56:09.325Z,22.11
2022-08-25T19:00:13.423Z,22.10
2022-08-25T19:04:15.585Z,22.07
2022-08-25T19:08:21.827Z,22.05
2022-08-25T19:12:24.074Z,22.00
2022-08-25T19:16:38.832Z,21.94
2022-08-25T19:20:42.788Z,21.90
2022-08-25T19:24:45.878Z,21.85
2022-08-25T19:28:49.344Z,21.80
2022-08-25T19:32:52.795Z,21.78
2022-08-25T19:36:56.174Z,21.71
2022-08-25T19:40:59.863Z,21.68
2022-08-25T19:45:02.105Z,21.61
2022-08-25T19:49:17.450Z,21.51
2022-08-25T19:53:19.786Z,21.42
2022-08-25T19:57:28.413Z,21.33
2022-08-25T20:01:47.575Z,21.18
2022-08-25T20:05:52.046Z,21.15
2022-08-25T20:09:55.678Z,21.06
2022-08-25T20:14:03.509Z,20.96
2022-08-25T20:18:06.805Z,20.86
2022-08-25T20:22:11.255Z,20.79
2022-08-25T20:26:19.675Z,20.79
2022-08-25T20:30:28.435Z,20.71
2022-08-25T20:34:30.685Z,20.60
2022-08-25T20:38:35.279Z,20.55
2022-08-25T20:42:40.535Z,20.36
2022-08-25T20:46:43.105Z,20.27
2022-08-25T20:50:45.824Z,20.19
2022-08-25T20:55:00.100Z,20.02
2022-08-25T20:59:04.198Z,19.88
2022-08-25T21:03:12.951Z,19.82
2022-08-25T21:07:15.035Z,19.73
2022-08-25T21:11:22.848Z,19.63
2022-08-25T21:15:25.415Z,19.47
2022-08-25T21:19:30.063Z,19.34
2022-08-25T21:23:32.610Z,19.26
2022-08-25T21:27:34.917Z,19.29
2022-08-25T21:31:37.087Z,19.21
2022-08-25T21:35:42.885Z,19.13
2022-08-25T21:39:45.025Z,19.05
2022-08-25T21:43:47.970Z,18.98
2022-08-25T21:47:50.233Z,18.95
2022-08-25T21:52:00.401Z,18.81
2022-08-25T21:56:06.838Z,18.84
2022-08-25T22:00:09.715Z,18.71
2022-08-25T22:04:14.675Z,18.62
2022-08-25T22:08:17.621Z,18.60
2022-08-25T22:12:21.885Z,18.59
2022-08-25T22:16:24.967Z,18.58
2022-08-25T22:20:27.125Z,18.47
2022-08-25T22:24:31.287Z,18.47
2022-08-25T22:28:33.321Z,18.45
2022-08-25T22:32:35.757Z,18.37
2022-08-25T22:36:39.162Z,18.26
2022-08-25T22:40:41.972Z,18.19
2022-08-25T22:44:44.207Z,18.20
2022-08-25T22:48:46.633Z,18.07
2022-08-25T22:52:52.722Z,18.10
2022-08-25T22:56:54.983Z,17.90
2022-08-25T23:00:57.834Z,17.92
2022-08-25T23:05:02.075Z,17.83
2022-08-25T23:09:07.455Z,17.75
2022-08-25T23:13:09.735Z,17.70
2022-08-25T23:17:17.527Z,17.63
2022-08-25T23:21:41.321Z,17.50
2022-08-25T23:25:44.650Z,17.54
2022-08-25T23:29:49.061Z,17.44
2022-08-25T23:33:51.625Z,17.35
2022-08-25T23:37:53.946Z,17.20
2022-08-25T23:42:01.986Z,17.12
2022-08-25T23:46:10.535Z,17.08
2022-08-25T23:50:14.733Z,16.82
2022-08-25T23:54:19.605Z,16.88
2022-08-25T23:58:22.232Z,16.84
